Time;durP1;ratioP1;P1;durP2;ratioP2;P2;SDS_P1;SDS_P2;PMS_P1;PMS_P2;Temp;Humidity;BMP_temperature;BMP_pressure;BME280_temperature;BME280_humidity;BME280_pressure;Samples;Min_cycle;Max_cycle;Signal;HPM_P1;HPM_P2
2024/03/27 00:00:16;;;;;;;0.70;0.70;;;8.90;91.50;;;;;;5091632;28;20428;-63
2024/03/27 00:02:41;;;;;;;1.00;0.90;;;8.80;91.60;;;;;;5091917;28;20604;-63
2024/03/27 00:05:07;;;;;;;0.90;0.73;;;8.80;91.60;;;;;;5092098;28;20417;-62
2024/03/27 00:07:33;;;;;;;1.60;1.03;;;8.80;91.40;;;;;;5092015;28;20177;-63
2024/03/27 00:09:58;;;;;;;0.90;0.80;;;8.80;92.10;;;;;;5091531;28;20426;-62
2024/03/27 00:12:24;;;;;;;3.33;1.00;;;8.70;91.20;;;;;;5091931;28;20168;-63
2024/03/27 00:14:50;;;;;;;2.03;0.80;;;8.70;91.30;;;;;;5091890;28;20698;-63
2024/03/27 00:17:15;;;;;;;1.40;0.67;;;8.50;91.60;;;;;;5091817;28;20171;-63
2024/03/27 00:19:41;;;;;;;1.00;0.70;;;8.40;99.90;;;;;;5092268;28;20209;-63
2024/03/27 00:22:06;;;;;;;0.83;0.83;;;8.30;92.30;;;;;;5091989;28;20176;-62
2024/03/27 00:24:32;;;;;;;3.40;1.50;;;8.40;92.20;;;;;;5091789;28;20168;-63
2024/03/27 00:26:58;;;;;;;1.43;0.60;;;8.40;92.10;;;;;;5091831;28;20203;-63
2024/03/27 00:29:23;;;;;;;1.40;0.90;;;8.30;92.40;;;;;;5091359;28;20203;-63
2024/03/27 00:31:49;;;;;;;1.13;0.90;;;8.30;91.30;;;;;;5091483;28;20227;-63
2024/03/27 00:34:18;;;;;;;1.60;1.20;;;8.30;91.00;;;;;;5091610;28;20161;-64
2024/03/27 00:36:44;;;;;;;0.70;0.70;;;8.20;91.10;;;;;;5099118;28;20174;-63
2024/03/27 00:39:09;;;;;;;3.57;1.00;;;8.20;91.50;;;;;;5099073;28;20180;-63
2024/03/27 00:41:35;;;;;;;0.90;0.80;;;8.10;91.90;;;;;;5099942;28;20191;-63
2024/03/27 00:44:00;;;;;;;1.13;0.80;;;8.10;91.90;;;;;;5100630;28;20177;-63
2024/03/27 00:46:26;;;;;;;2.47;0.87;;;8.10;91.60;;;;;;5099515;28;20182;-63
2024/03/27 00:48:52;;;;;;;2.13;0.87;;;8.00;98.80;;;;;;5099249;28;20214;-63
2024/03/27 00:51:18;;;;;;;0.73;0.73;;;7.90;91.40;;;;;;5095481;28;20699;-63
2024/03/27 00:53:43;;;;;;;1.37;0.97;;;7.90;91.70;;;;;;5095560;28;20414;-63
2024/03/27 00:56:09;;;;;;;1.23;0.93;;;7.70;91.80;;;;;;5095427;28;20176;-63
2024/03/27 00:58:35;;;;;;;1.15;0.80;;;7.70;92.30;;;;;;5095271;28;20659;-63
2024/03/27 01:01:00;;;;;;;1.50;0.80;;;7.80;92.30;;;;;;5095015;28;20215;-63
2024/03/27 01:03:26;;;;;;;1.43;1.40;;;7.70;92.60;;;;;;5095218;28;20179;-63
2024/03/27 01:05:53;;;;;;;1.20;1.00;;;7.60;92.90;;;;;;5095353;28;20168;-63
2024/03/27 01:08:20;;;;;;;2.17;0.90;;;7.60;93.00;;;;;;5095106;28;20265;-63
2024/03/27 01:10:46;;;;;;;0.90;0.90;;;7.60;92.90;;;;;;5095119;28;20214;-63
2024/03/27 01:13:17;;;;;;;1.63;1.53;;;7.60;92.80;;;;;;5095214;28;20210;-63
2024/03/27 01:15:48;;;;;;;1.98;0.85;;;7.60;93.00;;;;;;5094958;28;20178;-63
2024/03/27 01:18:14;;;;;;;3.40;0.90;;;7.50;92.90;;;;;;5094909;28;20180;-63
2024/03/27 01:20:43;;;;;;;1.07;0.73;;;7.50;92.70;;;;;;5094972;28;20190;-63
2024/03/27 01:23:09;;;;;;;4.65;1.08;;;7.50;92.70;;;;;;5093667;28;20426;-63
2024/03/27 01:25:36;;;;;;;1.88;1.40;;;7.40;92.70;;;;;;5094992;28;20179;-63
2024/03/27 01:28:02;;;;;;;1.17;1.08;;;7.30;92.90;;;;;;5094800;28;20198;-63
2024/03/27 01:30:28;;;;;;;0.73;0.70;;;7.30;92.80;;;;;;5094765;28;20360;-63
2024/03/27 01:32:54;;;;;;;1.07;0.70;;;7.30;92.60;;;;;;5094743;28;20174;-63
2024/03/27 01:35:19;;;;;;;0.93;0.70;;;7.20;92.70;;;;;;5094707;28;20162;-63
2024/03/27 01:37:45;;;;;;;0.73;0.70;;;7.10;92.90;;;;;;5095048;28;20251;-63
2024/03/27 01:40:11;;;;;;;0.77;0.70;;;6.90;93.30;;;;;;5094945;28;20197;-63
2024/03/27 01:42:36;;;;;;;0.53;0.53;;;6.80;93.40;;;;;;5094617;28;20184;-63
2024/03/27 01:45:02;;;;;;;1.10;0.90;;;6.80;93.60;;;;;;5094558;28;20410;-63
2024/03/27 01:47:28;;;;;;;0.82;0.60;;;6.60;93.70;;;;;;5094361;28;20172;-63
2024/03/27 01:49:55;;;;;;;0.77;0.77;;;6.60;93.90;;;;;;5094112;28;20210;-63
2024/03/27 01:52:21;;;;;;;0.70;0.70;;;6.70;94.00;;;;;;5094395;28;20544;-63
2024/03/27 01:54:48;;;;;;;0.90;0.90;;;6.60;93.90;;;;;;5094416;28;20186;-63
2024/03/27 01:57:13;;;;;;;1.13;0.70;;;6.60;94.00;;;;;;5094356;28;20174;-63
2024/03/27 01:59:39;;;;;;;0.67;0.67;;;6.70;99.60;;;;;;5093716;28;20174;-63
2024/03/27 02:02:07;;;;;;;1.40;0.77;;;6.60;94.10;;;;;;5094233;28;20212;-62
2024/03/27 02:04:32;;;;;;;1.13;0.70;;;7.00;94.30;;;;;;5094623;28;20172;-62
2024/03/27 02:06:59;;;;;;;0.80;0.80;;;6.50;94.20;;;;;;5094060;28;20626;-62
2024/03/27 02:09:28;;;;;;;0.70;0.60;;;6.40;94.50;;;;;;5093752;28;20195;-62
2024/03/27 02:11:53;;;;;;;1.50;1.00;;;6.20;94.60;;;;;;5093891;28;20193;-62
2024/03/27 02:14:20;;;;;;;0.73;0.73;;;6.30;94.80;;;;;;5094208;28;20529;-62
2024/03/27 02:16:45;;;;;;;4.18;1.17;;;6.30;94.40;;;;;;5094007;28;20174;-62
2024/03/27 02:19:11;;;;;;;1.07;0.70;;;6.40;94.00;;;;;;5093619;28;20224;-63
2024/03/27 02:21:38;;;;;;;1.13;0.83;;;6.50;93.90;;;;;;5093819;28;20688;-62
2024/03/27 02:24:10;;;;;;;1.05;0.98;;;6.40;94.00;;;;;;5093841;28;20265;-62
2024/03/27 02:26:37;;;;;;;0.93;0.80;;;6.50;94.00;;;;;;5093641;28;20173;-62
2024/03/27 02:29:02;;;;;;;5.45;0.80;;;6.50;93.80;;;;;;5093356;28;20213;-63
2024/03/27 02:31:29;;;;;;;3.67;1.00;;;6.60;93.60;;;;;;5093599;28;20276;-62
2024/03/27 02:33:54;;;;;;;0.50;0.50;;;6.40;93.80;;;;;;5093681;28;20189;-62
2024/03/27 02:36:20;;;;;;;1.00;1.00;;;6.30;94.10;;;;;;5093540;28;20173;-62
2024/03/27 02:38:45;;;;;;;3.70;1.13;;;6.20;94.50;;;;;;5093341;28;20165;-62
2024/03/27 02:41:11;;;;;;;0.67;0.60;;;6.20;94.50;;;;;;5093287;28;20189;-62
2024/03/27 02:43:37;;;;;;;0.83;0.83;;;6.30;94.40;;;;;;5093595;28;20180;-62
2024/03/27 02:46:03;;;;;;;0.80;0.80;;;6.30;94.30;;;;;;5093355;28;20169;-62
2024/03/27 02:48:28;;;;;;;2.30;0.70;;;6.20;94.30;;;;;;5093105;28;20200;-63
2024/03/27 02:50:54;;;;;;;1.07;0.70;;;6.20;94.40;;;;;;5093075;28;20287;-62
2024/03/27 02:53:20;;;;;;;2.00;1.50;;;6.20;94.50;;;;;;5093256;28;20211;-62
2024/03/27 02:55:45;;;;;;;0.60;0.60;;;6.20;94.40;;;;;;5093242;28;20192;-63
2024/03/27 02:58:11;;;;;;;2.40;0.70;;;6.10;94.50;;;;;;5093161;28;20414;-62
2024/03/27 03:00:37;;;;;;;1.50;0.83;;;6.00;94.90;;;;;;5092688;28;20212;-62
2024/03/27 03:03:02;;;;;;;1.90;0.70;;;6.00;94.80;;;;;;5093072;28;20180;-62
2024/03/27 03:05:29;;;;;;;1.63;0.60;;;6.00;95.00;;;;;;5093068;28;20226;-62
2024/03/27 03:07:54;;;;;;;1.05;0.73;;;6.00;94.90;;;;;;5092882;28;20903;-62
2024/03/27 03:10:20;;;;;;;0.60;0.60;;;6.00;95.00;;;;;;5092486;28;20262;-63
2024/03/27 03:12:45;;;;;;;3.30;0.80;;;6.00;94.80;;;;;;5092931;28;20173;-62
2024/03/27 03:15:11;;;;;;;3.37;0.60;;;6.00;95.10;;;;;;5092399;28;20243;-62
2024/03/27 03:17:37;;;;;;;0.77;0.77;;;6.00;95.40;;;;;;5092727;28;20213;-62
2024/03/27 03:20:04;;;;;;;1.60;1.50;;;6.10;95.40;;;;;;5092368;28;20227;-63
2024/03/27 03:22:30;;;;;;;1.25;1.15;;;6.10;95.30;;;;;;5092751;28;20182;-63
2024/03/27 03:24:56;;;;;;;5.73;1.60;;;6.00;95.10;;;;;;5092537;28;20181;-63
2024/03/27 03:27:21;;;;;;;1.07;0.97;;;6.10;95.40;;;;;;5092508;28;20405;-63
2024/03/27 03:29:47;;;;;;;0.87;0.57;;;6.20;99.90;;;;;;5091611;28;20229;-63
2024/03/27 03:32:13;;;;;;;1.13;0.77;;;6.30;94.90;;;;;;5091682;28;20404;-63
2024/03/27 03:34:38;;;;;;;2.30;1.00;;;6.30;94.90;;;;;;5091247;28;20169;-64
2024/03/27 03:37:04;;;;;;;1.10;0.83;;;6.40;95.10;;;;;;5091601;28;20747;-62
2024/03/27 03:39:31;;;;;;;1.02;1.02;;;6.30;95.00;;;;;;5092221;28;20173;-62
2024/03/27 03:41:57;;;;;;;0.60;0.60;;;6.20;94.90;;;;;;5092645;28;20650;-62
2024/03/27 03:44:23;;;;;;;0.68;0.68;;;6.20;95.10;;;;;;5092309;28;20268;-62
2024/03/27 03:46:49;;;;;;;4.10;0.70;;;6.30;95.30;;;;;;5092245;28;20252;-63
2024/03/27 03:49:15;;;;;;;0.40;0.40;;;6.30;95.40;;;;;;5091788;28;20965;-63
2024/03/27 03:51:42;;;;;;;4.73;0.60;;;6.40;95.20;;;;;;5092097;28;20878;-63
2024/03/27 03:54:08;;;;;;;0.95;0.95;;;6.50;95.40;;;;;;5081713;28;20196;-62
2024/03/27 03:56:34;;;;;;;0.50;0.50;;;6.50;94.70;;;;;;5071941;28;20651;-63
2024/03/27 03:59:00;;;;;;;0.40;0.40;;;6.60;94.70;;;;;;5071594;28;20402;-62
2024/03/27 04:01:27;;;;;;;0.85;0.68;;;6.60;94.70;;;;;;5071350;28;20298;-62
2024/03/27 04:03:53;;;;;;;0.70;0.70;;;6.60;94.80;;;;;;5071830;28;20215;-62
2024/03/27 04:06:19;;;;;;;0.40;0.40;;;6.70;94.80;;;;;;5071729;28;20654;-63
2024/03/27 04:08:44;;;;;;;0.50;0.50;;;6.60;94.80;;;;;;5071585;28;20250;-63
2024/03/27 04:11:10;;;;;;;0.73;0.73;;;6.70;94.70;;;;;;5070820;28;20193;-62
2024/03/27 04:13:36;;;;;;;1.07;0.60;;;6.70;94.90;;;;;;5071388;28;20664;-62
2024/03/27 04:16:02;;;;;;;1.95;0.82;;;6.60;95.00;;;;;;5072762;28;20437;-63
2024/03/27 04:18:28;;;;;;;0.60;0.50;;;6.60;95.20;;;;;;5071231;28;20266;-62
2024/03/27 04:20:54;;;;;;;0.65;0.52;;;6.70;95.40;;;;;;5070368;28;20439;-63
2024/03/27 04:23:20;;;;;;;0.80;0.60;;;6.80;95.20;;;;;;5071684;28;20179;-63
2024/03/27 04:25:50;;;;;;;0.90;0.85;;;7.00;95.00;;;;;;5071582;28;20232;-63
2024/03/27 04:28:16;;;;;;;1.30;0.68;;;7.00;95.00;;;;;;5071385;28;20291;-62
2024/03/27 04:30:42;;;;;;;1.50;0.60;;;6.90;95.20;;;;;;5071397;28;20191;-62
2024/03/27 04:33:09;;;;;;;0.68;0.60;;;6.90;95.20;;;;;;5071485;28;20177;-63
2024/03/27 04:35:35;;;;;;;1.08;0.50;;;6.90;95.40;;;;;;5071528;28;20168;-63
2024/03/27 04:38:01;;;;;;;1.57;1.20;;;6.90;95.30;;;;;;5071482;28;20641;-63
2024/03/27 04:40:26;;;;;;;0.50;0.50;;;6.90;95.40;;;;;;5071091;28;20434;-63
2024/03/27 04:42:52;;;;;;;2.13;0.60;;;7.00;95.30;;;;;;5071925;28;20175;-63
2024/03/27 04:45:18;;;;;;;1.80;0.70;;;7.00;94.80;;;;;;5071432;28;20180;-63
2024/03/27 04:47:44;;;;;;;0.80;0.80;;;7.00;94.80;;;;;;5071197;28;20177;-62
2024/03/27 04:50:10;;;;;;;0.90;0.70;;;7.00;95.40;;;;;;5071282;28;20813;-62
2024/03/27 04:52:36;;;;;;;1.45;0.77;;;7.00;94.80;;;;;;5071333;28;20963;-63
2024/03/27 04:55:05;;;;;;;0.50;0.50;;;7.20;94.90;;;;;;5071346;28;20184;-62
2024/03/27 04:57:31;;;;;;;7.13;2.00;;;7.20;94.90;;;;;;5071130;28;20169;-63
2024/03/27 04:59:57;;;;;;;1.90;1.48;;;7.20;95.00;;;;;;5070963;28;20231;-62
2024/03/27 05:02:24;;;;;;;1.50;1.10;;;7.10;95.10;;;;;;5071190;28;20168;-63
2024/03/27 05:04:49;;;;;;;4.03;0.93;;;7.10;95.20;;;;;;5071278;28;20176;-63
2024/03/27 05:07:16;;;;;;;0.53;0.53;;;7.00;95.20;;;;;;5071228;28;20170;-63
2024/03/27 05:09:42;;;;;;;0.85;0.60;;;7.00;99.90;;;;;;5070765;28;20279;-63
2024/03/27 05:12:07;;;;;;;3.10;1.00;;;7.20;95.10;;;;;;5071178;28;20603;-63
2024/03/27 05:14:33;;;;;;;0.80;0.80;;;7.20;95.00;;;;;;5070957;28;20226;-63
2024/03/27 05:16:59;;;;;;;1.07;0.87;;;7.30;95.40;;;;;;5071104;28;20172;-63
2024/03/27 05:19:24;;;;;;;0.80;0.70;;;7.30;95.20;;;;;;5070730;28;20172;-63
2024/03/27 05:21:53;;;;;;;1.20;1.10;;;7.20;95.50;;;;;;5072957;28;20604;-63
2024/03/27 05:24:19;;;;;;;3.70;1.85;;;7.10;95.50;;;;;;5074793;28;20175;-63
2024/03/27 05:26:50;;;;;;;1.70;0.93;;;7.00;95.90;;;;;;5074544;28;20179;-63
2024/03/27 05:29:15;;;;;;;0.77;0.77;;;7.00;96.10;;;;;;5074216;28;20443;-63
2024/03/27 05:31:57;;;;;;;2.53;1.00;;;6.90;95.90;;;;;;5074448;28;20203;-63
2024/03/27 05:34:23;;;;;;;0.98;0.98;;;7.00;95.90;;;;;;5075820;28;20645;-63
2024/03/27 05:36:49;;;;;;;3.97;2.08;;;7.00;95.80;;;;;;5074680;28;20258;-63
2024/03/27 05:39:15;;;;;;;1.77;1.43;;;7.00;96.00;;;;;;5074202;28;20225;-63
2024/03/27 05:41:43;;;;;;;2.10;0.87;;;7.00;96.00;;;;;;5074289;28;20199;-63
2024/03/27 05:44:09;;;;;;;0.90;0.90;;;7.10;95.90;;;;;;5074269;28;20188;-63
2024/03/27 05:46:35;;;;;;;1.33;1.13;;;7.10;95.80;;;;;;5074372;28;20208;-63
2024/03/27 05:49:04;;;;;;;2.50;1.43;;;7.10;95.80;;;;;;5072722;28;20454;-63
2024/03/27 05:51:33;;;;;;;0.80;0.65;;;7.00;95.90;;;;;;5074194;28;20797;-63
2024/03/27 05:54:00;;;;;;;2.75;1.63;;;7.00;96.20;;;;;;5074135;28;20172;-63
2024/03/27 05:56:25;;;;;;;4.65;1.20;;;7.00;96.00;;;;;;5073982;28;20171;-63
2024/03/27 05:58:51;;;;;;;1.63;1.47;;;7.00;96.00;;;;;;5073824;28;20544;-63
2024/03/27 06:01:18;;;;;;;1.63;1.05;;;6.90;96.00;;;;;;5073831;28;20225;-62
2024/03/27 06:03:48;;;;;;;0.70;0.70;;;6.90;95.90;;;;;;5073991;28;20596;-63
2024/03/27 06:06:13;;;;;;;2.05;0.90;;;7.00;96.00;;;;;;5073959;28;20203;-63
2024/03/27 06:08:39;;;;;;;2.50;1.30;;;7.10;96.20;;;;;;5073658;28;20232;-63
2024/03/27 06:11:04;;;;;;;4.83;2.17;;;7.10;96.20;;;;;;5073534;28;20718;-63
2024/03/27 06:13:30;;;;;;;2.27;1.67;;;7.10;96.30;;;;;;5073781;28;20250;-63
2024/03/27 06:15:56;;;;;;;1.50;1.40;;;7.20;97.10;;;;;;5073757;28;20214;-63
2024/03/27 06:18:21;;;;;;;2.40;1.67;;;7.20;97.40;;;;;;5073648;28;20270;-63
2024/03/27 06:20:47;;;;;;;2.00;1.70;;;7.20;97.80;;;;;;5073402;28;20539;-62
2024/03/27 06:23:13;;;;;;;1.80;1.20;;;7.30;98.10;;;;;;5073627;28;20173;-63
2024/03/27 06:25:40;;;;;;;2.80;2.00;;;7.30;98.00;;;;;;5073555;28;20723;-63
2024/03/27 06:28:06;;;;;;;2.05;1.85;;;7.30;98.10;;;;;;5072127;28;20204;-63
2024/03/27 06:30:38;;;;;;;4.00;2.30;;;7.20;98.90;;;;;;5073206;28;20345;-63
2024/03/27 06:33:04;;;;;;;1.95;1.70;;;7.30;99.10;;;;;;5072517;28;20554;-63
2024/03/27 06:35:31;;;;;;;2.88;1.80;;;7.30;98.80;;;;;;5075294;28;20168;-63
2024/03/27 06:37:56;;;;;;;2.00;1.90;;;7.50;98.80;;;;;;5077075;28;20255;-63
2024/03/27 06:40:22;;;;;;;2.77;1.97;;;7.60;98.90;;;;;;5076629;28;20269;-63
2024/03/27 06:42:48;;;;;;;2.50;2.00;;;7.70;98.50;;;;;;5076934;28;20243;-63
2024/03/27 06:45:14;;;;;;;3.83;2.13;;;7.90;98.20;;;;;;5077095;28;20207;-63
2024/03/27 06:47:40;;;;;;;2.90;2.65;;;8.00;98.10;;;;;;5076869;28;20178;-63
2024/03/27 06:50:06;;;;;;;1.83;1.73;;;8.00;98.20;;;;;;5076457;28;20303;-63
2024/03/27 06:52:32;;;;;;;2.50;1.85;;;8.10;98.40;;;;;;5076352;28;20177;-63
2024/03/27 06:54:58;;;;;;;5.57;1.52;;;8.20;98.00;;;;;;5075679;28;20205;-63
2024/03/27 06:57:24;;;;;;;8.73;2.33;;;8.40;97.70;;;;;;5075906;28;20168;-63
2024/03/27 06:59:49;;;;;;;3.93;2.17;;;8.80;99.90;;;;;;5087239;28;20219;-63
2024/03/27 07:02:15;;;;;;;6.63;3.30;;;8.70;97.30;;;;;;5095644;28;20169;-63
2024/03/27 07:04:43;;;;;;;7.80;3.70;;;8.80;97.70;;;;;;5096247;28;20173;-63
2024/03/27 07:07:08;;;;;;;3.47;3.17;;;8.80;97.90;;;;;;5096004;28;20686;-63
2024/03/27 07:09:34;;;;;;;3.83;3.00;;;8.70;99.90;;;;;;5095988;28;20235;-63
2024/03/27 07:12:00;;;;;;;3.60;3.03;;;8.80;98.10;;;;;;5095213;28;20258;-63
2024/03/27 07:14:25;;;;;;;3.00;2.40;;;8.70;98.40;;;;;;5094859;28;20172;-63
2024/03/27 07:16:51;;;;;;;4.27;3.53;;;8.70;98.80;;;;;;5095828;28;20547;-62
2024/03/27 07:19:17;;;;;;;4.73;3.80;;;8.70;99.00;;;;;;5095439;28;20176;-62
2024/03/27 07:21:42;;;;;;;5.00;4.30;;;8.70;99.30;;;;;;5095069;28;20429;-63
2024/03/27 07:24:08;;;;;;;5.40;3.93;;;8.80;99.70;;;;;;5095815;28;20169;-63
2024/03/27 07:26:38;;;;;;;5.30;4.20;;;8.70;99.80;;;;;;5095189;28;20551;-63
2024/03/27 07:29:04;;;;;;;4.85;4.35;;;8.60;99.90;;;;;;5094265;28;20496;-63
2024/03/27 07:31:30;;;;;;;5.82;3.78;;;8.40;99.90;;;;;;5094293;28;20206;-63
2024/03/27 07:33:56;;;;;;;8.33;4.23;;;8.40;99.90;;;;;;5094423;28;20201;-63
2024/03/27 07:36:21;;;;;;;6.20;3.83;;;8.40;99.90;;;;;;5094570;28;20187;-63
2024/03/27 07:38:47;;;;;;;6.93;5.37;;;8.50;99.90;;;;;;5094631;28;20231;-62
2024/03/27 07:41:13;;;;;;;5.03;4.53;;;8.70;99.90;;;;;;5094585;28;20192;-63
2024/03/27 07:43:38;;;;;;;7.83;5.30;;;8.70;99.90;;;;;;5094004;28;20244;-63
2024/03/27 07:46:05;;;;;;;6.50;5.13;;;8.60;99.90;;;;;;5094582;28;20177;-63
2024/03/27 07:48:30;;;;;;;5.45;4.15;;;8.70;99.90;;;;;;5093643;28;20208;-63
2024/03/27 07:50:56;;;;;;;5.57;4.10;;;8.80;99.90;;;;;;5093719;28;20689;-63
2024/03/27 07:53:22;;;;;;;2.80;2.57;;;8.80;99.90;;;;;;5094129;28;20187;-63
2024/03/27 07:55:58;;;;;;;2.13;1.93;;;8.50;99.90;;;;;;5095303;28;20832;-63
2024/03/27 07:58:24;;;;;;;2.30;2.10;;;8.40;99.90;;;;;;5094972;28;20175;-63
2024/03/27 08:00:53;;;;;;;2.20;2.00;;;8.30;99.90;;;;;;5094328;28;20219;-63
2024/03/27 08:03:18;;;;;;;1.63;1.20;;;8.20;99.90;;;;;;5094647;28;20176;-63
2024/03/27 08:05:44;;;;;;;2.93;1.60;;;8.20;99.90;;;;;;5094216;28;20202;-63
2024/03/27 08:08:10;;;;;;;1.03;1.03;;;8.00;99.90;;;;;;5093353;28;20249;-62
2024/03/27 08:10:37;;;;;;;1.20;1.10;;;7.80;99.90;;;;;;5094560;28;20800;-63
2024/03/27 08:13:03;;;;;;;0.95;0.95;;;7.60;99.90;;;;;;5094662;28;20171;-63
2024/03/27 08:15:28;;;;;;;1.13;0.80;;;7.50;99.90;;;;;;5095088;28;20216;-63
2024/03/27 08:17:54;;;;;;;0.70;0.70;;;7.40;99.90;;;;;;5094169;28;20188;-63
2024/03/27 08:20:21;;;;;;;1.17;1.07;;;7.40;99.90;;;;;;5094107;28;20185;-63
2024/03/27 08:22:47;;;;;;;0.55;0.55;;;7.50;99.90;;;;;;5093941;28;20409;-63
2024/03/27 08:25:13;;;;;;;1.30;0.80;;;7.50;99.90;;;;;;5094326;28;20168;-63
2024/03/27 08:27:38;;;;;;;0.60;0.60;;;7.40;99.90;;;;;;5094269;28;20560;-63
2024/03/27 08:30:07;;;;;;;0.57;0.50;;;7.50;99.90;;;;;;5094464;28;20198;-63
2024/03/27 08:32:33;;;;;;;0.60;0.60;;;7.60;99.90;;;;;;5094841;28;20166;-63
2024/03/27 08:34:59;;;;;;;0.98;0.88;;;7.80;99.90;;;;;;5094825;28;20175;-63
2024/03/27 08:37:24;;;;;;;0.80;0.60;;;7.70;99.40;;;;;;5093777;28;20541;-63
2024/03/27 08:39:51;;;;;;;0.60;0.60;;;7.60;99.90;;;;;;5094869;28;20175;-63
2024/03/27 08:42:17;;;;;;;0.77;0.77;;;7.60;99.70;;;;;;5095292;28;20191;-63
2024/03/27 08:44:43;;;;;;;0.63;0.63;;;7.60;99.80;;;;;;5095155;28;20175;-63
2024/03/27 08:47:08;;;;;;;1.20;1.10;;;7.60;99.60;;;;;;5096047;28;20228;-63
2024/03/27 08:49:35;;;;;;;1.40;1.30;;;7.70;99.90;;;;;;5093816;28;20687;-63
2024/03/27 08:52:01;;;;;;;1.88;0.60;;;7.60;99.30;;;;;;5094022;28;20250;-63
2024/03/27 08:54:27;;;;;;;1.45;0.80;;;7.70;99.40;;;;;;5094533;28;20175;-63
2024/03/27 08:56:52;;;;;;;1.27;1.10;;;7.70;98.90;;;;;;5095985;28;20182;-63
2024/03/27 08:59:18;;;;;;;0.60;0.50;;;7.70;98.90;;;;;;5098650;28;20462;-63
2024/03/27 09:01:43;;;;;;;0.63;0.63;;;7.60;98.80;;;;;;5098684;28;20211;-63
2024/03/27 09:04:09;;;;;;;1.00;0.90;;;7.60;98.90;;;;;;5098930;28;20170;-63
2024/03/27 09:06:35;;;;;;;0.70;0.50;;;7.50;98.90;;;;;;5097878;28;20178;-63
2024/03/27 09:09:00;;;;;;;0.50;0.50;;;7.40;98.80;;;;;;5098238;28;20209;-63
2024/03/27 09:11:26;;;;;;;0.60;0.60;;;7.50;99.20;;;;;;5097932;28;20202;-63
2024/03/27 09:13:51;;;;;;;1.17;0.87;;;7.50;99.20;;;;;;5098114;28;20220;-63
2024/03/27 09:16:17;;;;;;;0.80;0.80;;;7.60;99.20;;;;;;5098433;28;20180;-63
2024/03/27 09:18:43;;;;;;;0.60;0.60;;;7.70;99.10;;;;;;5098072;28;20183;-63
2024/03/27 09:21:08;;;;;;;0.60;0.60;;;7.80;98.60;;;;;;5097686;28;20199;-63
2024/03/27 09:23:34;;;;;;;1.43;0.67;;;7.80;98.20;;;;;;5097968;28;20206;-63
2024/03/27 09:26:04;;;;;;;0.40;0.40;;;7.70;98.20;;;;;;5098043;28;20199;-63
2024/03/27 09:28:30;;;;;;;0.57;0.57;;;7.70;98.10;;;;;;5097765;28;20226;-63
2024/03/27 09:30:56;;;;;;;0.60;0.60;;;7.70;98.20;;;;;;5096694;28;20218;-63
2024/03/27 09:33:25;;;;;;;0.50;0.50;;;7.50;98.50;;;;;;5098178;28;20228;-63
2024/03/27 09:35:51;;;;;;;0.70;0.70;;;7.30;98.70;;;;;;5097727;28;20253;-63
2024/03/27 09:38:17;;;;;;;0.50;0.50;;;7.20;99.30;;;;;;5098032;28;20211;-63
2024/03/27 09:40:48;;;;;;;0.50;0.50;;;7.20;99.70;;;;;;5097128;28;20681;-63
2024/03/27 09:43:15;;;;;;;0.70;0.50;;;7.20;99.70;;;;;;5097972;28;20614;-63
2024/03/27 09:45:45;;;;;;;0.50;0.50;;;7.30;99.50;;;;;;5097651;28;20203;-64
2024/03/27 09:48:11;;;;;;;0.60;0.60;;;7.20;99.40;;;;;;5096809;28;20191;-63
2024/03/27 09:50:38;;;;;;;0.73;0.70;;;7.30;99.30;;;;;;5096628;28;20200;-64
2024/03/27 09:53:04;;;;;;;3.10;0.80;;;7.40;99.10;;;;;;5097385;28;20167;-63
2024/03/27 09:55:37;;;;;;;0.60;0.60;;;7.20;99.10;;;;;;5096946;28;20173;-63
2024/03/27 09:58:11;;;;;;;0.98;0.98;;;6.80;99.00;;;;;;5096489;28;20170;-64
2024/03/27 10:00:38;;;;;;;0.60;0.60;;;6.60;99.60;;;;;;5096618;28;20205;-63
2024/03/27 10:03:04;;;;;;;0.50;0.50;;;6.60;99.90;;;;;;5096408;28;20166;-63
2024/03/27 10:05:30;;;;;;;0.77;0.70;;;6.30;99.90;;;;;;5097202;28;20256;-64
2024/03/27 10:07:56;;;;;;;0.40;0.40;;;6.30;99.90;;;;;;5096606;28;20175;-63
2024/03/27 10:10:25;;;;;;;0.50;0.47;;;6.30;99.90;;;;;;5096720;28;20211;-64
2024/03/27 10:12:52;;;;;;;0.63;0.63;;;6.30;99.90;;;;;;5097642;28;20202;-63
2024/03/27 10:15:17;;;;;;;0.70;0.70;;;6.20;99.90;;;;;;5097041;28;20170;-63
2024/03/27 10:17:43;;;;;;;1.20;1.10;;;6.40;99.70;;;;;;5096024;28;20179;-63
2024/03/27 10:20:09;;;;;;;1.40;1.33;;;6.40;99.60;;;;;;5096631;28;20214;-63
2024/03/27 10:22:39;;;;;;;2.45;1.90;;;6.50;99.70;;;;;;5096763;28;20171;-63
2024/03/27 10:25:06;;;;;;;17.38;9.35;;;6.60;99.50;;;;;;5096252;28;20187;-63
2024/03/27 10:27:32;;;;;;;0.60;0.60;;;6.60;99.00;;;;;;5096290;28;20662;-63
2024/03/27 10:29:58;;;;;;;0.65;0.60;;;6.70;99.20;;;;;;5097048;28;20216;-63
2024/03/27 10:32:24;;;;;;;0.82;0.60;;;6.80;98.90;;;;;;5096635;28;20648;-63
2024/03/27 10:34:50;;;;;;;1.50;0.80;;;6.80;98.50;;;;;;5096049;28;20189;-63
2024/03/27 10:37:17;;;;;;;0.93;0.83;;;6.80;98.00;;;;;;5096628;28;20238;-63
2024/03/27 10:39:48;;;;;;;0.82;0.82;;;6.50;99.90;;;;;;5096050;28;20175;-63
2024/03/27 10:42:23;;;;;;;0.88;0.88;;;6.60;98.30;;;;;;5096219;28;20173;-63
2024/03/27 10:44:55;;;;;;;0.60;0.50;;;6.90;98.20;;;;;;5095449;28;20191;-63
2024/03/27 10:47:22;;;;;;;0.70;0.70;;;7.00;97.40;;;;;;5096070;28;20201;-63
2024/03/27 10:49:50;;;;;;;1.30;1.08;;;6.60;99.90;;;;;;5096411;28;20211;-63
2024/03/27 10:52:16;;;;;;;1.10;1.10;;;6.60;96.90;;;;;;5096509;28;20178;-63
2024/03/27 10:54:46;;;;;;;0.40;0.40;;;6.70;97.30;;;;;;5096228;28;20538;-63
2024/03/27 10:57:14;;;;;;;0.60;0.60;;;6.70;97.30;;;;;;5096514;28;20602;-63
2024/03/27 10:59:42;;;;;;;0.75;0.60;;;6.70;99.90;;;;;;5095222;28;20170;-63
2024/03/27 11:02:10;;;;;;;2.13;1.88;;;6.90;96.90;;;;;;5095991;28;20205;-63
2024/03/27 11:04:39;;;;;;;0.70;0.70;;;6.90;96.80;;;;;;5095919;28;20174;-63
2024/03/27 11:07:07;;;;;;;0.50;0.50;;;6.90;96.80;;;;;;5095061;28;20170;-62
2024/03/27 11:09:34;;;;;;;0.70;0.70;;;7.10;99.90;;;;;;5095671;28;20208;-63
2024/03/27 11:12:01;;;;;;;0.73;0.73;;;7.10;96.00;;;;;;5095615;28;20178;-63
2024/03/27 11:14:27;;;;;;;0.50;0.50;;;7.10;95.90;;;;;;5095406;28;20224;-62
2024/03/27 11:16:55;;;;;;;0.47;0.47;;;7.10;95.40;;;;;;5095119;28;20259;-63
2024/03/27 11:19:40;;;;;;;0.50;0.50;;;7.00;95.70;;;;;;5095011;28;20413;-62
2024/03/27 11:22:14;;;;;;;2.95;2.50;;;6.90;95.60;;;;;;5096166;28;20194;-63
2024/03/27 11:24:40;;;;;;;0.50;0.50;;;6.60;95.50;;;;;;5096255;28;20209;-63
2024/03/27 11:27:06;;;;;;;1.00;0.70;;;6.40;95.80;;;;;;5096245;28;20654;-63
2024/03/27 11:29:33;;;;;;;0.70;0.50;;;6.00;95.80;;;;;;5094100;28;20207;-63
2024/03/27 11:32:01;;;;;;;0.50;0.50;;;6.30;96.20;;;;;;5094920;28;20178;-63
2024/03/27 11:34:28;;;;;;;0.60;0.52;;;6.20;96.60;;;;;;5095130;28;20180;-63
2024/03/27 11:36:54;;;;;;;0.50;0.50;;;6.30;97.10;;;;;;5095650;28;20171;-63
2024/03/27 11:39:21;;;;;;;0.40;0.40;;;6.30;96.80;;;;;;5095632;28;20232;-63
2024/03/27 11:41:47;;;;;;;0.50;0.50;;;6.40;96.70;;;;;;5095438;28;20188;-63
2024/03/27 11:44:16;;;;;;;0.40;0.40;;;6.40;96.40;;;;;;5095353;28;20202;-63
2024/03/27 11:46:42;;;;;;;0.63;0.63;;;6.40;96.40;;;;;;5095084;28;20223;-63
2024/03/27 11:49:08;;;;;;;0.40;0.40;;;6.40;96.40;;;;;;5094891;28;20247;-63
2024/03/27 11:51:35;;;;;;;0.40;0.40;;;6.30;96.30;;;;;;5094170;28;20189;-63
2024/03/27 11:54:01;;;;;;;0.50;0.50;;;6.20;96.40;;;;;;5095000;28;20172;-63
2024/03/27 11:56:31;;;;;;;0.40;0.40;;;6.20;96.60;;;;;;5094819;28;20313;-62
2024/03/27 11:58:57;;;;;;;0.45;0.45;;;6.30;96.80;;;;;;5094451;28;20413;-63
2024/03/27 12:01:24;;;;;;;7.38;4.28;;;6.30;96.70;;;;;;5094567;28;20213;-62
2024/03/27 12:03:52;;;;;;;0.93;0.50;;;6.30;96.40;;;;;;5093819;28;20259;-63
2024/03/27 12:06:19;;;;;;;0.82;0.82;;;6.30;96.50;;;;;;5094588;28;20195;-62
2024/03/27 12:08:45;;;;;;;0.57;0.57;;;6.40;96.50;;;;;;5094329;28;20214;-63
2024/03/27 12:11:10;;;;;;;0.40;0.40;;;6.50;96.30;;;;;;5094544;28;20187;-63
2024/03/27 12:13:39;;;;;;;0.43;0.43;;;6.40;96.10;;;;;;5094621;28;20167;-63
2024/03/27 12:16:12;;;;;;;0.90;0.90;;;6.40;96.30;;;;;;5093836;28;20177;-62
2024/03/27 12:18:44;;;;;;;0.40;0.40;;;6.50;96.30;;;;;;5095083;28;20237;-63
2024/03/27 12:21:15;;;;;;;0.60;0.52;;;6.70;96.30;;;;;;5094646;28;20290;-63
2024/03/27 12:23:43;;;;;;;0.45;0.45;;;6.70;96.10;;;;;;5095832;28;20189;-63
2024/03/27 12:26:13;;;;;;;0.50;0.50;;;6.80;95.80;;;;;;5094871;28;20178;-63
2024/03/27 12:28:40;;;;;;;0.40;0.40;;;6.80;95.30;;;;;;5095616;28;20226;-64
2024/03/27 12:31:06;;;;;;;0.60;0.60;;;6.80;95.30;;;;;;5096589;28;20203;-63
2024/03/27 12:33:32;;;;;;;0.73;0.55;;;6.80;95.40;;;;;;5100253;28;20169;-64
2024/03/27 12:35:58;;;;;;;0.50;0.50;;;6.80;95.50;;;;;;5099182;28;20642;-63
2024/03/27 12:38:24;;;;;;;0.70;0.70;;;6.70;95.40;;;;;;5098110;28;20181;-63
2024/03/27 12:40:49;;;;;;;0.50;0.50;;;6.70;95.60;;;;;;5099055;28;21422;-64
2024/03/27 12:43:15;;;;;;;0.40;0.40;;;6.80;95.80;;;;;;5098161;28;20177;-64
2024/03/27 12:45:41;;;;;;;0.70;0.70;;;6.80;95.40;;;;;;5097373;28;20183;-63
2024/03/27 12:48:07;;;;;;;0.40;0.40;;;6.70;95.60;;;;;;5097558;28;20186;-63
2024/03/27 12:50:33;;;;;;;0.60;0.60;;;6.70;95.70;;;;;;5098853;28;20486;-63
2024/03/27 12:52:59;;;;;;;0.40;0.40;;;6.70;95.90;;;;;;5098754;28;20670;-64